createdAt,value
2019-04-16T00:02:33.062Z,23.27
2019-04-16T00:05:29.119Z,23.23
2019-04-16T00:08:27.596Z,25.23
2019-04-16T00:11:36.716Z,23.60
2019-04-16T00:14:32.047Z,25.30
2019-04-16T00:17:21.588Z,22.33
2019-04-16T00:20:11.612Z,23.97
2019-04-16T00:23:07.407Z,21.80
2019-04-16T00:26:10.425Z,24.40
2019-04-16T00:29:13.517Z,23.93
2019-04-16T00:32:07.905Z,22.90
2019-04-16T00:38:07.726Z,24.47
2019-04-16T00:41:01.891Z,24.83
2019-04-16T00:43:51.482Z,21.00
2019-04-16T00:46:47.918Z,22.67
2019-04-16T00:49:45.605Z,23.90
2019-04-16T00:52:37.704Z,27.63
2019-04-16T00:55:47.059Z,23.50
2019-04-16T00:58:38.579Z,22.07
2019-04-16T01:01:27.800Z,21.90
2019-04-16T01:04:16.605Z,24.40
2019-04-16T01:07:11.219Z,21.47
2019-04-16T01:10:04.564Z,24.03
2019-04-16T01:13:01.108Z,22.57
2019-04-16T01:15:52.342Z,24.83
2019-04-16T01:18:45.987Z,25.07
2019-04-16T01:21:45.815Z,24.10
2019-04-16T01:24:38.581Z,26.47
2019-04-16T01:27:38.038Z,23.63
2019-04-16T01:30:47.833Z,24.83
2019-04-16T01:33:50.102Z,24.17
2019-04-16T01:36:54.343Z,25.03
2019-04-16T01:39:47.360Z,25.17
2019-04-16T01:42:49.021Z,23.33
2019-04-16T01:45:37.996Z,24.60
2019-04-16T01:48:27.065Z,22.20
2019-04-16T01:51:17.953Z,26.10
2019-04-16T01:54:11.831Z,26.50
2019-04-16T01:57:08.924Z,25.03
2019-04-16T02:00:00.114Z,24.03
2019-04-16T02:02:50.079Z,25.97
2019-04-16T02:05:43.741Z,25.17
2019-04-16T02:08:34.471Z,27.57
2019-04-16T02:11:25.668Z,26.10
2019-04-16T02:14:18.446Z,24.97
2019-04-16T02:17:08.284Z,25.93
2019-04-16T02:20:06.942Z,26.60
2019-04-16T02:22:56.361Z,28.50
2019-04-16T02:25:48.495Z,22.67
2019-04-16T02:28:41.003Z,23.77
2019-04-16T02:31:37.741Z,24.13
2019-04-16T02:34:24.283Z,23.30
2019-04-16T02:37:16.999Z,24.30
2019-04-16T02:40:16.765Z,24.30
2019-04-16T02:43:11.537Z,26.83
2019-04-16T02:46:02.150Z,27.83
2019-04-16T02:48:58.203Z,25.97
2019-04-16T02:52:15.233Z,24.87
2019-04-16T02:55:20.059Z,24.40
2019-04-16T02:58:34.396Z,25.67
2019-04-16T03:01:51.889Z,25.00
2019-04-16T03:04:58.313Z,27.80
2019-04-16T03:07:41.720Z,24.73
2019-04-16T03:10:36.640Z,24.40
2019-04-16T03:13:29.427Z,23.03
2019-04-16T03:16:39.837Z,22.63
2019-04-16T03:19:32.812Z,26.30
2019-04-16T03:48:52.587Z,25.40
2019-04-16T03:52:37.530Z,24.30
2019-04-16T03:59:36.454Z,27.57
2019-04-16T04:16:11.426Z,23.80
2019-04-16T04:19:35.683Z,23.57
2019-04-16T04:31:32.151Z,27.07
2019-04-16T04:47:17.908Z,26.77
2019-04-16T04:51:09.057Z,26.70
2019-04-16T05:07:04.459Z,26.27
2019-04-16T05:11:07.352Z,25.23
2019-04-16T05:15:08.108Z,25.53
2019-04-16T05:19:01.574Z,24.83
2019-04-16T05:22:58.248Z,24.80
2019-04-16T05:29:54.070Z,24.97
2019-04-16T05:41:22.759Z,25.50
2019-04-16T05:48:53.975Z,27.07
2019-04-16T05:56:28.755Z,31.10
2019-04-16T06:19:08.422Z,30.10
2019-04-16T06:26:35.531Z,31.57
2019-04-16T06:46:30.648Z,31.63
2019-04-16T06:50:04.997Z,29.33
2019-04-16T06:53:57.526Z,30.20
2019-04-16T07:21:39.131Z,25.70
2019-04-16T07:25:46.327Z,26.03
2019-04-16T07:29:05.289Z,25.27
2019-04-16T07:36:18.820Z,27.03
2019-04-16T07:44:26.843Z,25.17
2019-04-16T08:03:12.606Z,25.23
2019-04-16T08:06:00.777Z,26.43
2019-04-16T08:08:48.811Z,25.97
2019-04-16T08:12:10.323Z,25.93
2019-04-16T08:14:54.005Z,26.90
2019-04-16T08:17:41.997Z,23.10
2019-04-16T08:20:34.451Z,25.00
2019-04-16T08:23:51.706Z,24.13
2019-04-16T08:26:34.884Z,26.40
2019-04-16T08:29:26.222Z,29.43
2019-04-16T08:32:15.984Z,26.23
2019-04-16T08:35:03.292Z,29.20
2019-04-16T08:37:57.940Z,28.13
2019-04-16T08:40:48.923Z,28.07
2019-04-16T08:43:40.297Z,26.67
2019-04-16T08:46:30.710Z,24.27
2019-04-16T08:49:22.481Z,31.00
2019-04-16T08:52:13.883Z,28.23
2019-04-16T08:55:13.809Z,26.83
2019-04-16T08:58:12.307Z,26.63
2019-04-16T09:01:01.049Z,29.37
2019-04-16T09:03:50.023Z,29.70
2019-04-16T09:06:38.940Z,29.03
2019-04-16T09:09:50.966Z,28.20
2019-04-16T09:13:02.457Z,29.50
2019-04-16T09:15:38.131Z,27.60
2019-04-16T09:18:35.274Z,26.97
2019-04-16T09:21:23.773Z,26.43
2019-04-16T09:24:40.503Z,29.43
2019-04-16T09:27:54.337Z,29.43
2019-04-16T09:31:02.989Z,28.27
2019-04-16T09:34:43.442Z,29.87
2019-04-16T09:37:54.448Z,28.57
2019-04-16T09:41:04.889Z,27.87
2019-04-16T09:43:57.241Z,25.83
2019-04-16T09:46:50.991Z,27.03
2019-04-16T09:49:39.236Z,26.13
2019-04-16T09:52:28.015Z,26.10
2019-04-16T09:55:19.658Z,24.63
2019-04-16T09:58:28.424Z,23.47
2019-04-16T10:01:16.380Z,28.30
2019-04-16T10:04:04.780Z,26.77
2019-04-16T10:07:13.599Z,24.53
2019-04-16T10:10:01.962Z,25.07
2019-04-16T10:12:49.723Z,24.07
2019-04-16T10:15:49.062Z,22.90
2019-04-16T10:18:46.787Z,22.43
2019-04-16T10:21:35.105Z,21.63
2019-04-16T10:24:42.619Z,22.17
2019-04-16T10:27:42.195Z,24.97
2019-04-16T10:31:01.706Z,23.47
2019-04-16T10:33:49.902Z,22.63
2019-04-16T10:36:38.230Z,24.53
2019-04-16T10:39:45.870Z,25.30
2019-04-16T10:42:50.505Z,26.60
2019-04-16T10:45:52.455Z,22.23
2019-04-16T10:49:05.226Z,23.90
2019-04-16T10:52:10.859Z,26.23
2019-04-16T10:55:21.402Z,25.07
2019-04-16T10:58:39.052Z,23.43
2019-04-16T11:01:34.996Z,25.10
2019-04-16T11:04:36.390Z,23.87
2019-04-16T11:07:26.510Z,24.23
2019-04-16T11:10:14.604Z,23.37
2019-04-16T11:13:06.208Z,23.93
2019-04-16T11:16:02.731Z,22.70
2019-04-16T11:18:51.200Z,21.80
2019-04-16T11:21:39.789Z,21.23
2019-04-16T11:24:27.981Z,24.43
2019-04-16T11:27:30.959Z,21.77
2019-04-16T11:30:43.348Z,21.47
2019-04-16T11:33:32.075Z,22.30
2019-04-16T11:36:30.578Z,20.53
2019-04-16T11:40:18.622Z,23.27
2019-04-16T11:44:15.689Z,17.97
2019-04-16T11:51:55.171Z,17.57
2019-04-16T11:55:19.043Z,17.23
2019-04-16T11:59:21.940Z,18.53
2019-04-16T12:02:39.386Z,16.00
2019-04-16T12:06:28.265Z,17.40
2019-04-16T12:09:30.668Z,16.60
2019-04-16T12:12:37.755Z,15.17
2019-04-16T12:16:14.203Z,14.83
2019-04-16T12:19:23.429Z,12.30
2019-04-16T12:22:36.422Z,11.97
2019-04-16T12:25:49.634Z,16.63
2019-04-16T12:28:56.216Z,13.83
2019-04-16T12:32:18.884Z,15.63
2019-04-16T12:35:22.994Z,15.37
2019-04-16T12:38:18.165Z,15.60
2019-04-16T12:41:14.278Z,14.23
2019-04-16T12:44:23.957Z,14.13
2019-04-16T12:47:28.928Z,13.40
2019-04-16T12:50:51.459Z,13.00
2019-04-16T12:54:08.908Z,16.00
2019-04-16T12:57:16.563Z,13.17
2019-04-16T13:00:14.419Z,12.80
2019-04-16T13:03:18.144Z,14.17
2019-04-16T13:06:19.887Z,12.80
2019-04-16T13:09:26.890Z,13.63
2019-04-16T13:12:27.809Z,15.30
2019-04-16T13:15:46.578Z,15.70
2019-04-16T13:18:45.579Z,15.20
2019-04-16T13:21:44.567Z,15.33
2019-04-16T13:24:42.010Z,15.70
2019-04-16T13:27:35.791Z,16.00
2019-04-16T13:30:24.472Z,15.13
2019-04-16T13:33:20.211Z,13.17
2019-04-16T13:36:15.074Z,13.63
2019-04-16T13:39:33.772Z,16.07
2019-04-16T13:42:25.404Z,16.33
2019-04-16T13:45:26.159Z,14.10
2019-04-16T13:48:34.197Z,15.67
2019-04-16T13:51:24.475Z,15.43
2019-04-16T13:54:40.186Z,16.17
2019-04-16T13:57:30.921Z,15.40
2019-04-16T14:00:23.704Z,17.87
2019-04-16T14:03:14.819Z,17.00
2019-04-16T14:06:09.353Z,18.03
2019-04-16T14:08:57.337Z,16.97
2019-04-16T14:11:51.352Z,16.63
2019-04-16T14:14:39.291Z,18.00
2019-04-16T14:17:28.727Z,15.57
2019-04-16T14:20:18.638Z,14.13
2019-04-16T14:23:22.005Z,17.17
2019-04-16T14:26:11.592Z,15.70
2019-04-16T14:29:05.527Z,15.73
2019-04-16T14:31:51.757Z,16.40
2019-04-16T14:34:50.874Z,17.73
2019-04-16T14:37:41.334Z,17.37
2019-04-16T14:41:02.460Z,16.60
2019-04-16T14:44:22.284Z,16.03
2019-04-16T14:47:18.779Z,12.73
2019-04-16T14:50:07.777Z,9.53
2019-04-16T14:56:58.469Z,6.77
2019-04-16T15:00:27.145Z,6.67
2019-04-16T15:03:36.181Z,6.90
2019-04-16T15:06:54.417Z,7.27
2019-04-16T15:09:53.252Z,6.57
2019-04-16T15:12:50.390Z,8.40
2019-04-16T15:19:09.154Z,8.77
2019-04-16T15:22:22.195Z,8.00
2019-04-16T15:25:29.677Z,8.70
2019-04-16T15:28:32.651Z,8.93
2019-04-16T15:31:52.113Z,7.90
2019-04-16T15:34:44.017Z,9.57
2019-04-16T15:37:57.918Z,9.93
2019-04-16T15:40:53.423Z,9.97
2019-04-16T15:44:04.713Z,10.37
2019-04-16T15:47:07.065Z,10.53
2019-04-16T15:50:05.649Z,9.53
2019-04-16T15:53:15.945Z,11.27
2019-04-16T15:56:11.658Z,11.70
2019-04-16T15:59:11.906Z,12.90
2019-04-16T16:02:30.971Z,15.27
2019-04-16T16:06:04.663Z,13.90
2019-04-16T16:10:02.328Z,13.23
2019-04-16T16:12:58.220Z,16.63
2019-04-16T16:15:46.028Z,14.17
2019-04-16T16:18:35.739Z,15.03
2019-04-16T16:21:23.433Z,13.90
2019-04-16T16:24:11.146Z,15.83
2019-04-16T16:26:59.017Z,13.93
2019-04-16T16:29:47.348Z,16.17
2019-04-16T16:32:35.431Z,14.27
2019-04-16T16:35:24.791Z,16.83
2019-04-16T16:38:14.113Z,17.07
2019-04-16T16:41:02.572Z,16.10
2019-04-16T16:43:50.562Z,14.27
2019-04-16T16:46:59.995Z,14.97
2019-04-16T16:49:48.239Z,17.73
2019-04-16T16:53:01.808Z,15.50
2019-04-16T16:55:56.071Z,14.70
2019-04-16T16:59:03.340Z,14.93
2019-04-16T17:02:09.235Z,17.67
2019-04-16T17:04:55.691Z,16.13
2019-04-16T17:07:43.741Z,17.03
2019-04-16T17:10:31.685Z,16.50
2019-04-16T17:13:21.194Z,17.63
2019-04-16T17:16:14.517Z,20.57
2019-04-16T17:19:36.688Z,19.13
2019-04-16T17:22:40.792Z,19.20
2019-04-16T17:25:37.675Z,18.43
2019-04-16T17:28:34.189Z,18.60
2019-04-16T17:31:35.847Z,18.30
2019-04-16T17:34:24.428Z,18.73
2019-04-16T17:37:13.062Z,19.90
2019-04-16T17:40:35.821Z,16.57
2019-04-16T17:44:01.906Z,17.70
2019-04-16T17:47:04.429Z,17.43
2019-04-16T17:50:04.236Z,18.03
2019-04-16T17:53:16.555Z,16.97
2019-04-16T17:56:39.820Z,20.20
2019-04-16T17:59:48.651Z,19.00
2019-04-16T18:02:52.879Z,19.90
2019-04-16T18:05:49.469Z,18.80
2019-04-16T18:09:10.443Z,20.40
2019-04-16T18:12:32.686Z,21.47
2019-04-16T18:15:42.512Z,21.10
2019-04-16T18:18:36.539Z,20.37
2019-04-16T18:21:49.836Z,20.17
2019-04-16T18:25:07.351Z,19.57
2019-04-16T18:28:23.428Z,16.00
2019-04-16T18:31:31.286Z,20.00
2019-04-16T18:34:35.578Z,17.03
2019-04-16T18:37:35.588Z,18.33
2019-04-16T18:40:38.665Z,18.03
2019-04-16T18:43:44.435Z,15.87
2019-04-16T18:47:04.961Z,15.20
2019-04-16T18:49:52.976Z,19.67
2019-04-16T18:52:44.191Z,18.83
2019-04-16T18:55:32.026Z,17.87
2019-04-16T18:58:20.274Z,16.83
2019-04-16T19:01:18.601Z,19.47
2019-04-16T19:04:06.802Z,20.13
2019-04-16T19:06:54.254Z,20.37
2019-04-16T19:09:42.084Z,22.90
2019-04-16T19:12:29.917Z,18.40
2019-04-16T19:15:18.134Z,17.43
2019-04-16T19:18:19.242Z,15.57
2019-04-16T19:20:55.754Z,14.77
2019-04-16T19:23:44.282Z,18.20
2019-04-16T19:26:36.495Z,15.80
2019-04-16T19:29:25.093Z,14.93
2019-04-16T19:32:13.360Z,13.77
2019-04-16T19:35:09.936Z,14.40
2019-04-16T19:37:51.278Z,17.73
2019-04-16T19:40:38.705Z,16.70
2019-04-16T19:43:28.433Z,16.13
2019-04-16T19:46:16.907Z,15.43
2019-04-16T19:49:04.980Z,15.23
2019-04-16T19:51:53.133Z,17.37
2019-04-16T19:54:41.529Z,14.10
2019-04-16T19:57:30.707Z,14.20
2019-04-16T20:00:23.044Z,15.40
2019-04-16T20:03:09.067Z,14.47
2019-04-16T20:05:57.120Z,16.90
2019-04-16T20:08:45.203Z,15.20
2019-04-16T20:11:33.207Z,17.73
2019-04-16T20:14:20.954Z,15.87
2019-04-16T20:17:08.693Z,14.60
2019-04-16T20:19:57.648Z,16.03
2019-04-16T20:22:45.456Z,14.90
2019-04-16T20:25:33.379Z,13.43
2019-04-16T20:28:21.990Z,14.27
2019-04-16T20:31:10.135Z,13.77
2019-04-16T20:34:01.181Z,13.93
2019-04-16T20:36:57.201Z,14.07
2019-04-16T20:39:45.002Z,14.13
2019-04-16T20:42:33.355Z,14.77
2019-04-16T20:45:21.364Z,14.93
2019-04-16T20:48:18.530Z,14.87
2019-04-16T20:51:08.113Z,13.27
2019-04-16T20:53:56.857Z,12.93
2019-04-16T20:56:49.991Z,14.13
2019-04-16T20:59:44.501Z,13.90
2019-04-16T21:02:38.934Z,15.07
2019-04-16T21:05:32.568Z,13.07
2019-04-16T21:08:24.141Z,15.07
2019-04-16T21:11:09.858Z,14.13
2019-04-16T21:14:02.518Z,13.23
2019-04-16T21:16:54.852Z,14.13
2019-04-16T21:19:49.422Z,14.13
2019-04-16T21:22:37.985Z,14.97
2019-04-16T21:29:34.412Z,14.87
2019-04-16T21:32:41.552Z,17.50
2019-04-16T21:35:36.629Z,14.77
2019-04-16T21:38:49.346Z,17.63
2019-04-16T21:41:43.067Z,17.93
2019-04-16T21:44:31.427Z,17.33
2019-04-16T21:47:23.611Z,19.57
2019-04-16T21:50:59.136Z,17.60
2019-04-16T21:53:50.337Z,17.87
2019-04-16T22:01:32.669Z,16.07
2019-04-16T22:04:36.196Z,14.80
2019-04-16T22:08:21.984Z,16.30
2019-04-16T22:11:24.410Z,14.27
2019-04-16T22:15:06.372Z,14.27
2019-04-16T22:18:24.911Z,14.73
2019-04-16T22:22:06.328Z,15.80
2019-04-16T22:25:39.311Z,16.23
2019-04-16T22:33:08.450Z,16.27
2019-04-16T22:36:42.357Z,21.37
2019-04-16T22:40:30.073Z,16.63
2019-04-16T22:44:24.186Z,16.90
2019-04-16T22:47:51.956Z,16.60
2019-04-16T22:50:47.368Z,19.77
2019-04-16T22:57:23.995Z,19.03
2019-04-16T23:00:44.069Z,20.10
2019-04-16T23:04:09.177Z,16.83
2019-04-16T23:07:24.575Z,18.50
2019-04-16T23:10:43.055Z,17.10
2019-04-16T23:14:13.214Z,16.83
2019-04-16T23:25:27.004Z,14.43
2019-04-16T23:28:29.211Z,17.37
2019-04-16T23:31:48.589Z,19.33
2019-04-16T23:35:10.766Z,21.33
2019-04-16T23:37:59.309Z,20.60
2019-04-16T23:40:47.502Z,16.77
2019-04-16T23:43:53.589Z,18.63
2019-04-16T23:46:54.767Z,17.03
2019-04-16T23:49:50.411Z,19.23
2019-04-16T23:52:43.968Z,18.37
2019-04-16T23:55:49.992Z,19.60
2019-04-16T23:58:51.537Z,22.53
